createdAt,value
2018-05-29T00:03:47.204Z,20.30
2018-05-29T00:06:14.836Z,18.00
2018-05-29T00:08:42.390Z,20.50
2018-05-29T00:11:09.988Z,19.30
2018-05-29T00:13:37.671Z,20.97
2018-05-29T00:16:05.342Z,19.27
2018-05-29T00:18:32.949Z,19.03
2018-05-29T00:21:00.558Z,19.00
2018-05-29T00:23:28.186Z,22.17
2018-05-29T00:25:55.708Z,20.40
2018-05-29T00:28:23.316Z,18.27
2018-05-29T00:30:50.927Z,19.53
2018-05-29T00:33:18.614Z,19.67
2018-05-29T00:35:46.305Z,21.73
2018-05-29T00:38:13.919Z,18.13
2018-05-29T00:40:41.537Z,19.00
2018-05-29T00:43:09.202Z,20.00
2018-05-29T00:45:36.905Z,18.93
2018-05-29T00:48:04.491Z,18.27
2018-05-29T00:50:32.181Z,20.03
2018-05-29T00:52:59.781Z,18.83
2018-05-29T00:55:39.392Z,20.10
2018-05-29T00:58:07.162Z,18.70
2018-05-29T01:00:34.970Z,18.47
2018-05-29T01:03:06.401Z,20.20
2018-05-29T01:05:34.147Z,19.17
2018-05-29T01:08:01.774Z,19.53
2018-05-29T01:10:29.459Z,19.87
2018-05-29T01:12:57.272Z,18.70
2018-05-29T01:15:24.892Z,19.37
2018-05-29T01:17:52.412Z,20.50
2018-05-29T01:20:20.081Z,19.70
2018-05-29T01:22:47.659Z,19.77
2018-05-29T01:25:16.087Z,19.10
2018-05-29T01:27:43.696Z,18.77
2018-05-29T01:30:11.339Z,18.90
2018-05-29T01:32:39.349Z,18.90
2018-05-29T01:35:07.218Z,18.60
2018-05-29T01:37:34.896Z,19.67
2018-05-29T01:40:02.544Z,18.57
2018-05-29T01:42:30.142Z,18.57
2018-05-29T01:44:57.795Z,19.33
2018-05-29T01:47:25.410Z,17.43
2018-05-29T01:49:52.975Z,19.67
2018-05-29T01:52:41.851Z,18.00
2018-05-29T01:55:09.784Z,18.57
2018-05-29T01:57:37.399Z,19.87
2018-05-29T02:00:04.916Z,20.57
2018-05-29T02:02:34.630Z,19.70
2018-05-29T02:05:02.304Z,19.20
2018-05-29T02:07:30.233Z,19.73
2018-05-29T02:09:57.801Z,20.00
2018-05-29T02:12:25.396Z,18.07
2018-05-29T02:14:53.061Z,18.90
2018-05-29T02:17:20.604Z,20.07
2018-05-29T02:19:48.116Z,19.07
2018-05-29T02:22:15.731Z,19.80
2018-05-29T02:24:43.365Z,17.90
2018-05-29T02:27:11.911Z,19.67
2018-05-29T02:29:39.549Z,19.97
2018-05-29T02:32:07.162Z,20.50
2018-05-29T02:34:34.815Z,19.37
2018-05-29T02:39:39.433Z,18.63
2018-05-29T02:42:07.120Z,16.97
2018-05-29T02:44:34.716Z,18.70
2018-05-29T02:47:02.637Z,20.00
2018-05-29T02:49:30.676Z,18.13
2018-05-29T02:51:58.537Z,19.17
2018-05-29T02:54:26.054Z,18.70
2018-05-29T02:56:53.613Z,19.07
2018-05-29T02:59:21.621Z,18.87
2018-05-29T03:01:49.261Z,19.47
2018-05-29T03:04:16.789Z,20.63
2018-05-29T03:09:18.532Z,19.33
2018-05-29T03:11:46.131Z,20.07
2018-05-29T03:14:13.789Z,19.83
2018-05-29T03:16:41.369Z,19.23
2018-05-29T03:19:08.907Z,19.30
2018-05-29T03:21:36.498Z,19.83
2018-05-29T03:24:04.056Z,18.63
2018-05-29T03:26:31.655Z,18.33
2018-05-29T03:28:59.189Z,18.73
2018-05-29T03:31:26.717Z,18.67
2018-05-29T03:33:54.259Z,18.20
2018-05-29T03:36:21.856Z,18.70
2018-05-29T03:38:49.436Z,22.27
2018-05-29T03:41:17.075Z,20.83
2018-05-29T03:43:44.660Z,21.43
2018-05-29T03:46:12.277Z,17.73
2018-05-29T03:48:43.617Z,19.23
2018-05-29T03:51:11.225Z,17.53
2018-05-29T03:53:42.373Z,18.97
2018-05-29T03:56:09.899Z,20.33
2018-05-29T03:58:37.443Z,19.50
2018-05-29T04:01:04.976Z,20.33
2018-05-29T04:03:32.504Z,17.93
2018-05-29T04:06:00.062Z,19.90
2018-05-29T04:08:27.583Z,18.27
2018-05-29T04:10:55.107Z,18.07
2018-05-29T04:13:22.835Z,19.87
2018-05-29T04:15:50.449Z,18.20
2018-05-29T04:18:18.055Z,21.00
2018-05-29T04:20:45.601Z,20.50
2018-05-29T04:23:13.135Z,19.47
2018-05-29T04:25:40.673Z,19.00
2018-05-29T04:28:08.252Z,19.07
2018-05-29T04:30:35.879Z,18.67
2018-05-29T04:33:03.522Z,18.80
2018-05-29T04:35:31.785Z,19.53
2018-05-29T04:37:59.359Z,19.60
2018-05-29T04:40:26.987Z,20.43
2018-05-29T04:42:54.657Z,20.20
2018-05-29T04:45:22.353Z,18.40
2018-05-29T04:47:50.002Z,19.87
2018-05-29T04:50:17.601Z,19.73
2018-05-29T04:52:45.243Z,19.13
2018-05-29T04:55:12.854Z,18.40
2018-05-29T04:57:40.515Z,19.57
2018-05-29T05:00:08.067Z,18.63
2018-05-29T05:02:35.644Z,18.20
2018-05-29T05:05:03.169Z,17.50
2018-05-29T05:07:30.687Z,17.00
2018-05-29T05:09:58.257Z,18.93
2018-05-29T05:12:25.818Z,18.43
2018-05-29T05:17:27.064Z,17.80
2018-05-29T05:19:54.689Z,17.80
2018-05-29T05:22:22.201Z,16.50
2018-05-29T05:24:49.764Z,17.60
2018-05-29T05:27:17.363Z,19.40
2018-05-29T05:29:44.971Z,17.93
2018-05-29T05:32:12.617Z,17.83
2018-05-29T05:34:40.271Z,18.50
2018-05-29T05:37:07.985Z,17.80
2018-05-29T05:39:35.589Z,18.90
2018-05-29T05:42:03.196Z,18.70
2018-05-29T05:44:30.713Z,18.07
2018-05-29T05:46:58.272Z,20.33
2018-05-29T05:49:25.819Z,19.60
2018-05-29T05:51:53.388Z,20.43
2018-05-29T05:54:20.941Z,19.07
2018-05-29T05:56:48.489Z,19.17
2018-05-29T05:59:16.027Z,21.97
2018-05-29T06:01:43.543Z,19.57
2018-05-29T06:04:11.096Z,27.53
2018-05-29T06:06:38.631Z,27.17
2018-05-29T06:09:06.266Z,27.03
2018-05-29T06:11:33.901Z,27.00
2018-05-29T06:14:01.530Z,39.60
2018-05-29T06:16:29.172Z,33.00
2018-05-29T06:18:56.837Z,28.60
2018-05-29T06:21:24.508Z,24.60
2018-05-29T06:23:52.150Z,25.90
2018-05-29T06:26:19.792Z,25.97
2018-05-29T06:28:47.499Z,24.90
2018-05-29T06:31:15.130Z,22.87
2018-05-29T06:33:42.661Z,23.20
2018-05-29T06:36:10.183Z,21.90
2018-05-29T06:38:37.741Z,20.93
2018-05-29T06:41:05.248Z,19.63
2018-05-29T06:43:32.930Z,20.37
2018-05-29T06:46:00.569Z,19.53
2018-05-29T06:48:28.184Z,20.30
2018-05-29T06:50:55.870Z,20.83
2018-05-29T06:53:23.488Z,20.40
2018-05-29T06:55:51.111Z,21.47
2018-05-29T06:58:18.649Z,18.20
2018-05-29T07:00:46.239Z,23.13
2018-05-29T07:03:14.881Z,21.27
2018-05-29T07:05:43.116Z,20.93
2018-05-29T07:08:10.762Z,20.90
2018-05-29T07:10:38.399Z,20.13
2018-05-29T07:13:06.088Z,21.50
2018-05-29T07:15:33.747Z,19.87
2018-05-29T07:18:01.943Z,21.80
2018-05-29T07:20:29.537Z,20.13
2018-05-29T07:22:57.146Z,19.30
2018-05-29T07:25:24.696Z,21.60
2018-05-29T07:27:52.448Z,22.20
2018-05-29T07:30:25.511Z,23.10
2018-05-29T07:32:55.275Z,20.90
2018-05-29T07:35:23.018Z,21.60
2018-05-29T07:37:51.718Z,19.53
2018-05-29T07:40:21.863Z,18.47
2018-05-29T07:42:49.429Z,20.67
2018-05-29T07:45:18.055Z,18.30
2018-05-29T07:47:47.021Z,18.40
2018-05-29T07:50:14.889Z,18.63
2018-05-29T07:52:43.018Z,20.67
2018-05-29T07:55:11.571Z,22.23
2018-05-29T07:57:39.244Z,21.97
2018-05-29T08:00:10.839Z,20.97
2018-05-29T08:02:42.073Z,20.63
2018-05-29T08:05:10.418Z,21.10
2018-05-29T08:07:38.237Z,19.60
2018-05-29T08:10:07.061Z,19.33
2018-05-29T08:12:35.631Z,19.47
2018-05-29T08:15:04.555Z,19.43
2018-05-29T08:17:35.502Z,18.67
2018-05-29T08:20:04.251Z,19.80
2018-05-29T08:22:34.205Z,19.17
2018-05-29T08:25:02.592Z,19.07
2018-05-29T08:27:30.848Z,16.80
2018-05-29T08:30:08.601Z,19.30
2018-05-29T08:32:37.890Z,18.77
2018-05-29T08:35:05.549Z,18.60
2018-05-29T08:40:14.593Z,18.03
2018-05-29T08:47:49.887Z,18.57
2018-05-29T08:50:20.791Z,19.23
2018-05-29T08:52:49.437Z,17.90
2018-05-29T08:55:24.001Z,17.77
2018-05-29T08:57:52.283Z,17.90
2018-05-29T09:00:20.650Z,17.77
2018-05-29T09:02:57.233Z,17.50
2018-05-29T09:05:25.813Z,16.63
2018-05-29T09:07:54.433Z,17.10
2018-05-29T09:10:28.575Z,18.87
2018-05-29T09:12:58.224Z,17.83
2018-05-29T09:15:49.012Z,17.40
2018-05-29T09:20:58.286Z,17.20
2018-05-29T09:23:31.849Z,17.77
2018-05-29T09:28:50.366Z,18.33
2018-05-29T09:31:22.368Z,18.57
2018-05-29T09:33:56.895Z,18.97
2018-05-29T09:36:24.588Z,19.67
2018-05-29T09:38:53.689Z,17.60
2018-05-29T09:41:28.981Z,18.70
2018-05-29T09:43:59.799Z,18.00
2018-05-29T09:46:31.701Z,18.60
2018-05-29T09:49:00.461Z,17.77
2018-05-29T10:05:31.290Z,19.27
2018-05-29T10:08:09.554Z,18.87
2018-05-29T10:13:29.301Z,20.57
2018-05-29T10:16:11.155Z,19.13
2018-05-29T10:19:15.130Z,19.50
2018-05-29T10:22:05.242Z,19.07
2018-05-29T10:24:38.075Z,18.73
2018-05-29T10:27:07.867Z,17.77
2018-05-29T10:29:35.533Z,15.83
2018-05-29T10:32:04.338Z,18.20
2018-05-29T10:34:39.128Z,17.23
2018-05-29T10:37:22.297Z,17.97
2018-05-29T10:39:51.176Z,18.30
2018-05-29T10:42:19.584Z,18.20
2018-05-29T10:44:49.502Z,18.40
2018-05-29T10:47:29.962Z,17.57
2018-05-29T10:49:58.441Z,17.60
2018-05-29T10:52:27.853Z,17.80
2018-05-29T10:55:00.720Z,17.93
2018-05-29T10:57:29.440Z,16.80
2018-05-29T11:00:05.145Z,16.07
2018-05-29T11:08:15.555Z,16.80
2018-05-29T11:13:33.137Z,15.53
2018-05-29T11:16:03.241Z,15.80
2018-05-29T11:21:40.824Z,15.90
2018-05-29T11:24:10.204Z,16.00
2018-05-29T11:26:45.292Z,14.87
2018-05-29T11:29:14.370Z,16.10
2018-05-29T11:31:54.583Z,14.20
2018-05-29T11:34:26.699Z,13.67
2018-05-29T11:39:49.430Z,14.03
2018-05-29T11:42:30.477Z,15.03
2018-05-29T11:45:20.537Z,14.20
2018-05-29T11:47:50.113Z,13.63
2018-05-29T11:50:20.713Z,14.37
2018-05-29T11:52:49.735Z,13.97
2018-05-29T11:55:23.072Z,15.43
2018-05-29T11:57:52.832Z,14.20
2018-05-29T12:00:29.296Z,12.83
2018-05-29T12:03:03.147Z,15.00
2018-05-29T12:05:54.677Z,14.70
2018-05-29T12:08:36.092Z,14.03
2018-05-29T12:11:12.746Z,13.80
2018-05-29T12:13:45.118Z,13.37
2018-05-29T12:16:22.977Z,13.73
2018-05-29T12:18:51.244Z,13.50
2018-05-29T12:26:11.608Z,13.40
2018-05-29T12:28:47.559Z,13.80
2018-05-29T12:31:33.418Z,12.20
2018-05-29T12:48:35.377Z,12.97
2018-05-29T12:51:09.462Z,12.20
2018-05-29T13:09:12.955Z,10.30
2018-05-29T13:11:51.604Z,11.03
2018-05-29T13:14:50.211Z,10.37
2018-05-29T13:20:44.092Z,8.47
2018-05-29T14:35:35.284Z,7.43
2018-05-29T14:38:12.948Z,7.20
2018-05-29T14:40:53.727Z,7.33
2018-05-29T14:46:49.465Z,6.40
2018-05-29T14:49:17.211Z,5.83
2018-05-29T14:51:45.526Z,6.57
2018-05-29T14:54:14.977Z,6.90
2018-05-29T14:56:57.377Z,6.50
2018-05-29T15:02:26.292Z,6.50
2018-05-29T15:09:49.063Z,5.53
2018-05-29T15:14:59.500Z,5.90
2018-05-29T15:20:27.803Z,5.80
2018-05-29T15:23:05.216Z,5.30
2018-05-29T15:25:33.627Z,5.00
2018-05-29T15:28:02.227Z,5.80
2018-05-29T15:30:36.697Z,5.57
2018-05-29T15:33:16.101Z,6.43
2018-05-29T15:35:54.458Z,4.93
2018-05-29T15:38:24.625Z,5.67
2018-05-29T15:41:13.574Z,5.80
2018-05-29T15:47:05.474Z,6.10
2018-05-29T15:49:47.085Z,6.00
2018-05-29T15:52:24.381Z,5.67
2018-05-29T15:54:55.730Z,6.00
2018-05-29T16:00:45.756Z,6.40
2018-05-29T16:03:35.944Z,7.00
2018-05-29T16:06:05.820Z,7.70
2018-05-29T16:22:35.071Z,7.07
2018-05-29T16:25:11.048Z,6.70
2018-05-29T16:27:43.843Z,6.87
2018-05-29T16:30:20.891Z,7.30
2018-05-29T16:32:49.002Z,7.93
2018-05-29T16:38:04.310Z,7.10
2018-05-29T16:40:33.512Z,7.40
2018-05-29T16:43:13.686Z,7.77
2018-05-29T16:46:01.328Z,7.53
2018-05-29T16:48:29.108Z,8.40
2018-05-29T16:51:00.031Z,7.47
2018-05-29T16:53:35.727Z,7.17
2018-05-29T16:56:03.653Z,7.73
2018-05-29T16:58:33.331Z,7.40
2018-05-29T17:01:05.994Z,7.60
2018-05-29T17:03:37.952Z,8.67
2018-05-29T17:06:06.603Z,7.90
2018-05-29T17:08:36.212Z,7.30
2018-05-29T17:11:04.093Z,7.57
2018-05-29T17:13:32.526Z,8.20
2018-05-29T17:16:00.294Z,8.07
2018-05-29T17:18:28.379Z,8.93
2018-05-29T17:20:59.578Z,9.90
2018-05-29T17:23:27.312Z,8.87
2018-05-29T17:25:54.981Z,9.83
2018-05-29T17:28:23.041Z,9.10
2018-05-29T17:30:50.631Z,8.67
2018-05-29T17:33:19.504Z,7.80
2018-05-29T17:35:47.142Z,8.00
2018-05-29T17:38:14.964Z,8.90
2018-05-29T17:40:42.963Z,8.20
2018-05-29T17:43:12.174Z,8.70
2018-05-29T17:45:39.852Z,9.80
2018-05-29T17:48:07.536Z,9.50
2018-05-29T17:50:36.230Z,9.30
2018-05-29T17:53:03.905Z,9.07
2018-05-29T17:55:31.596Z,9.70
2018-05-29T17:58:00.036Z,8.80
2018-05-29T18:00:28.553Z,9.17
2018-05-29T18:02:57.128Z,10.47
2018-05-29T18:05:33.460Z,9.40
2018-05-29T18:08:01.246Z,8.03
2018-05-29T18:10:29.995Z,10.40
2018-05-29T18:12:57.741Z,9.47
2018-05-29T18:15:25.553Z,9.40
2018-05-29T18:17:53.252Z,7.97
2018-05-29T18:20:20.896Z,9.53
2018-05-29T18:22:48.831Z,8.37
2018-05-29T18:25:17.455Z,9.00
2018-05-29T18:27:45.441Z,9.40
2018-05-29T18:30:13.109Z,9.20
2018-05-29T18:32:40.948Z,9.77
2018-05-29T18:35:08.618Z,9.13
2018-05-29T18:37:36.255Z,8.70
2018-05-29T18:40:04.015Z,8.77
2018-05-29T18:42:32.297Z,9.27
2018-05-29T18:44:59.979Z,8.60
2018-05-29T18:47:27.906Z,10.20
2018-05-29T18:49:56.639Z,10.60
2018-05-29T18:52:24.389Z,10.43
2018-05-29T18:54:53.071Z,10.00
2018-05-29T18:57:20.740Z,10.53
2018-05-29T18:59:48.457Z,9.83
2018-05-29T19:02:16.193Z,9.40
2018-05-29T19:04:44.774Z,10.17
2018-05-29T19:07:12.586Z,9.20
2018-05-29T19:09:40.201Z,9.87
2018-05-29T19:12:07.961Z,10.40
2018-05-29T19:14:35.885Z,10.37
2018-05-29T19:17:03.738Z,9.93
2018-05-29T19:19:31.436Z,10.10
2018-05-29T19:21:59.058Z,9.13
2018-05-29T19:24:26.786Z,10.93
2018-05-29T19:26:54.418Z,9.50
2018-05-29T19:29:22.097Z,10.20
2018-05-29T19:31:50.220Z,10.47
2018-05-29T19:34:17.990Z,9.43
2018-05-29T19:36:45.677Z,11.57
2018-05-29T19:39:13.344Z,10.40
2018-05-29T19:41:41.049Z,10.70
2018-05-29T19:44:08.778Z,10.33
2018-05-29T19:46:36.916Z,11.10
2018-05-29T19:49:04.569Z,9.93
2018-05-29T19:51:32.488Z,10.40
2018-05-29T19:54:00.193Z,10.17
2018-05-29T19:56:27.823Z,10.50
2018-05-29T19:58:55.668Z,10.63
2018-05-29T20:01:23.389Z,10.20
2018-05-29T20:03:51.025Z,10.13
2018-05-29T20:06:18.665Z,10.70
2018-05-29T20:08:46.213Z,9.63
2018-05-29T20:11:14.365Z,10.50
2018-05-29T20:13:42.128Z,9.67
2018-05-29T20:16:09.754Z,10.07
2018-05-29T20:18:37.493Z,11.57
2018-05-29T20:21:05.132Z,11.17
2018-05-29T20:23:32.818Z,10.67
2018-05-29T20:26:00.434Z,9.53
2018-05-29T20:28:28.289Z,10.27
2018-05-29T20:30:56.110Z,10.83
2018-05-29T20:33:23.797Z,11.23
2018-05-29T20:35:51.490Z,10.50
2018-05-29T20:38:19.144Z,11.83
2018-05-29T20:40:46.745Z,9.70
2018-05-29T20:43:14.390Z,10.70
2018-05-29T20:45:42.103Z,11.27
2018-05-29T20:48:09.815Z,11.50
2018-05-29T20:50:37.497Z,10.87
2018-05-29T20:53:05.128Z,10.90
2018-05-29T20:55:32.746Z,10.57
2018-05-29T20:58:00.412Z,10.80
2018-05-29T21:00:28.744Z,11.10
2018-05-29T21:02:56.444Z,11.13
2018-05-29T21:05:24.093Z,11.30
2018-05-29T21:07:51.759Z,12.77
2018-05-29T21:10:19.327Z,10.57
2018-05-29T21:12:46.879Z,11.07
2018-05-29T21:15:14.559Z,11.00
2018-05-29T21:17:42.236Z,11.83
2018-05-29T21:20:10.100Z,10.07
2018-05-29T21:22:37.728Z,9.97
2018-05-29T21:25:05.497Z,11.63
2018-05-29T21:27:33.160Z,10.00
2018-05-29T21:30:01.948Z,10.70
2018-05-29T21:32:29.717Z,11.33
2018-05-29T21:34:57.375Z,11.10
2018-05-29T21:37:25.128Z,11.77
2018-05-29T21:39:53.227Z,10.83
2018-05-29T21:42:21.977Z,10.83
2018-05-29T21:44:49.666Z,10.30
2018-05-29T21:47:18.612Z,10.63
2018-05-29T21:49:46.329Z,10.37
2018-05-29T21:52:14.039Z,10.63
2018-05-29T21:54:41.685Z,11.20
2018-05-29T21:57:09.710Z,10.40
2018-05-29T21:59:38.458Z,11.03
2018-05-29T22:02:06.201Z,11.17
2018-05-29T22:04:33.974Z,11.70
2018-05-29T22:07:01.633Z,11.33
2018-05-29T22:09:29.546Z,12.03
2018-05-29T22:11:57.266Z,10.63
2018-05-29T22:14:25.078Z,12.73
2018-05-29T22:16:52.691Z,11.73
2018-05-29T22:19:22.178Z,11.80
2018-05-29T22:21:49.879Z,11.97
2018-05-29T22:24:17.492Z,12.70
2018-05-29T22:26:45.330Z,11.50
2018-05-29T22:29:13.105Z,12.97
2018-05-29T22:31:41.216Z,11.83
2018-05-29T22:34:08.953Z,12.23
2018-05-29T22:36:36.512Z,13.07
2018-05-29T22:39:04.361Z,12.90
2018-05-29T22:41:32.472Z,11.50
2018-05-29T22:44:00.207Z,13.90
2018-05-29T22:46:27.936Z,14.27
2018-05-29T22:48:55.576Z,14.57
2018-05-29T22:51:23.286Z,12.43
2018-05-29T22:53:51.305Z,11.70
2018-05-29T22:56:18.880Z,13.00
2018-05-29T22:58:46.450Z,11.43
2018-05-29T23:01:14.057Z,12.23
2018-05-29T23:03:41.674Z,12.33
2018-05-29T23:06:09.254Z,12.50
2018-05-29T23:08:36.971Z,11.87
2018-05-29T23:11:04.853Z,12.33
2018-05-29T23:13:32.625Z,12.23
2018-05-29T23:16:00.328Z,12.40
2018-05-29T23:18:28.854Z,12.47
2018-05-29T23:20:56.496Z,12.00
2018-05-29T23:23:25.210Z,12.30
2018-05-29T23:25:52.884Z,12.50
2018-05-29T23:28:20.571Z,13.27
2018-05-29T23:30:48.228Z,12.60
2018-05-29T23:33:16.142Z,12.50
2018-05-29T23:35:44.710Z,12.90
2018-05-29T23:38:12.341Z,13.17
2018-05-29T23:40:40.013Z,13.00
2018-05-29T23:43:08.535Z,12.13
2018-05-29T23:45:36.252Z,12.60
2018-05-29T23:48:04.296Z,12.30
2018-05-29T23:50:31.979Z,13.47
2018-05-29T23:52:59.564Z,12.20
2018-05-29T23:55:27.174Z,13.07
2018-05-29T23:57:54.861Z,12.83
